Flight Track Log - Related Links

Times and Time Zones

All times are in EDT time to prevent confusion due to time zone crossing. See the N600TR flight status page for this flight to view local times or setup timezone preferences in your user account.

Time Position Orientation Groundspeed Altitude Reporting Facility
EDT Latitude Longitude Course Direction KTS MPH feet Rate Location/Type
Sat 08:01:40 AM 36.3803 -82.5094 219° Southwest 242 278 4,600  Level Atlanta Center
Sat 08:02:40 AM 36.3225 -82.5594 215° Southwest 284 327 7,100 2,700 Climbing Atlanta Center
Sat 08:03:00 AM 36.2087 -82.6414 219° Southwest  Level FlightAware Approximate
Sat 08:03:40 AM 36.2586 -82.6175 216° Southwest 290 334 10,000  Level Atlanta Center
Sat 08:04:00 AM 36.1457 -82.7043 219° Southwest  Level FlightAware Approximate
Sat 08:04:40 AM 36.1906 -82.6831 218° Southwest 304 350 11,200  Level Atlanta Center
Sat 08:05:00 AM 36.0828 -82.7672 219° Southwest  Level FlightAware Approximate
Sat 08:05:40 AM 36.1122 -82.7614 219° Southwest 350 403 13,600  Level Atlanta Center
Sat 08:06:00 AM 36.0173 -82.8247 202° Southwest  Level FlightAware Approximate
Sat 08:06:40 AM 36.0336 -82.8397 219° Southwest 373 429 15,700  Level Atlanta Center
Sat 08:07:00 AM 35.9517 -82.8818 219° Southwest  Level FlightAware Approximate
Sat 08:07:40 AM 35.9467 -82.9178 216° Southwest 378 435 17,500  Level Atlanta Center
Sat 08:08:40 AM 35.8578 -82.9933 215° Southwest 391 450 19,500 1,950 Climbing Atlanta Center
Sat 08:09:40 AM 35.7686 -83.0636 213° Southwest 396 456 21,400 1,250 Climbing Atlanta Center
Sat 08:10:40 AM 35.6561 -83.0931 192° South 396 456 22,000 300 Climbing Atlanta Center
Sat 08:11:40 AM 35.5397 -83.1225 192° South 422 486 22,000  Level Atlanta Center
Sat 08:12:40 AM 35.4333 -83.1492 192° South 413 475 22,000  Level Atlanta Center
Sat 08:13:40 AM 35.3208 -83.1658 187° South 385 443 22,000  Level Atlanta Center
Sat 08:14:40 AM 35.2208 -83.1819 187° South 368 423 22,000  Level Atlanta Center
Sat 08:15:40 AM 35.1311 -83.2006 190° South 368 423 22,000  Level Atlanta Center
Sat 08:16:40 AM 35.0333 -83.2219 190° South 368 423 22,000  Level Atlanta Center
Sat 08:17:40 AM 34.9311 -83.2433 190° South 368 423 22,000  Level Atlanta Center
Sat 08:18:40 AM 34.8333 -83.2644 190° South 374 430 22,000  Level Atlanta Center
Sat 08:19:40 AM 34.7292 -83.2881 191° South 374 430 22,000  Level Atlanta Center
Sat 08:20:40 AM 34.6250 -83.3522 207° Southwest 374 430 22,000  Level Atlanta Center
Sat 08:21:40 AM 34.5442 -83.4386 221° Southwest 387 445 22,000 -100 Level Atlanta Center
Sat 08:22:40 AM 34.4589 -83.5172 217° Southwest 391 450 21,800 -1,250 Descending Atlanta Center
Sat 08:23:40 AM 34.3717 -83.5883 214° Southwest 391 450 19,500 -2,150 Descending Atlanta Center
Sat 08:24:40 AM 34.2903 -83.6617 217° Southwest 377 434 17,500 -1,600 Descending Atlanta Center
Sat 08:25:40 AM 34.2197 -83.7272 218° Southwest 348 400 16,300 -1,350 Descending Atlanta Center
Sat 08:26:40 AM 34.1572 -83.7828 216° Southwest 325 374 14,800 -1,150 Descending Atlanta Center
Sat 08:27:40 AM 34.0906 -83.8431 217° Southwest 303 349 14,000 -400 Descending Atlanta Center
Sat 08:28:40 AM 34.0300 -83.9083 222° Southwest 297 342 14,000 -450 Level Atlanta Center
Sat 08:29:40 AM 33.9653 -83.9661 217° Southwest 303 349 13,100 -900 Descending Atlanta Center
Sat 08:30:40 AM 33.8986 -84.0189 213° Southwest 293 337 12,200 -550 Descending Atlanta Center
Sat 08:31:40 AM 33.8256 -84.0814 215° Southwest 293 337 12,000 -100 Descending Atlanta Center
Sat 08:32:40 AM 33.7711 -84.1514 227° Southwest 288 331 12,000 50 Level Atlanta Center
Sat 08:33:40 AM 33.7336 -84.2211 237° Southwest 274 315 12,100  Climbing Atlanta Center
Sat 08:34:40 AM 33.7167 -84.2961 255° West 245 282 12,000 -750 Descending Atlanta Center
Sat 08:35:40 AM 33.7208 -84.3783 274° West 241 277 10,600 -1,240 Descending Atlanta Center
Sat 08:36:41 AM 33.7167 -84.4500 266° West 237 273 9,500 -1,140 Descending Atlanta TRACON
Sat 08:37:41 AM 33.7167 -84.5333 270° West 219 252 8,300 -1,286 Descending Atlanta TRACON
Sat 08:38:47 AM 33.7167 -84.6167 270° West 222 255 6,800 -1,300 Descending Atlanta TRACON
Sat 08:39:41 AM 33.7333 -84.6833 287° West 222 255 5,700 -947 Descending Atlanta TRACON
Sat 08:40:41 AM 33.7333 -84.7500 270° West 218 251 5,000 -350 Descending Atlanta TRACON
Sat 08:41:41 AM 33.7333 -84.8167 270° West 221 254 5,000 50 Level Atlanta TRACON
Sat 08:42:41 AM 33.7167 -84.9000 257° West 225 259 5,100  Climbing Atlanta TRACON
Sat 08:43:41 AM 33.6667 -84.9000 180° South 217 250 5,000 -50 Descending Atlanta TRACON
Sat 08:44:41 AM 33.6500 -84.8333 107° East 221 254 5,000  Level Atlanta TRACON
Sat 08:45:41 AM 33.6500 -84.7667 90° East 190 219 5,000  Level Atlanta TRACON
Sat 08:46:41 AM 33.6500 -84.7000 90° East 187 215 5,000 -350 Level Atlanta TRACON
Sat 08:47:41 AM 33.6500 -84.6333 90° East 189 217 4,300 -800 Descending Atlanta TRACON
Sat 08:48:41 AM 33.6500 -84.5833 90° East 171 197 3,400 -900 Descending Atlanta TRACON
Sat 08:49:41 AM 33.6500 -84.5333 90° East 137 158 2,500 -750 Descending Atlanta TRACON
Sat 08:50:41 AM 33.6500 -84.4833 90° East 125 144 1,900 -667 Descending Atlanta TRACON
Sat 08:51:47 AM 33.6500 -84.4500 90° East 127 146 1,100 -727 Descending Atlanta TRACON

Login

Don't have an account? Register now (free) for customized features, flight alerts, and more!